Time;durP1;ratioP1;P1;durP2;ratioP2;P2;SDS_P1;SDS_P2;PMS_P1;PMS_P2;Temp;Humidity;BMP_temperature;BMP_pressure;BME280_temperature;BME280_humidity;BME280_pressure;Samples;Min_cycle;Max_cycle;Signal;HPM_P1;HPM_P2
2023/10/31 00:01:08;;;;;;;0.73;0.60;;;;;;;;;;4992200;28;20117;-82
2023/10/31 00:03:34;;;;;;;0.50;0.30;;;;;;;;;;4992888;28;20072;-81
2023/10/31 00:05:59;;;;;;;0.77;0.40;;;;;;;;;;4969396;28;20062;-81
2023/10/31 00:08:25;;;;;;;0.20;0.20;;;;;;;;;;4990632;28;20435;-80
2023/10/31 00:10:50;;;;;;;1.52;0.30;;;;;;;;;;4987689;28;20031;-81
2023/10/31 00:13:16;;;;;;;0.10;0.10;;;;;;;;;;4991889;28;20041;-81
2023/10/31 00:15:41;;;;;;;0.63;0.20;;;;;;;;;;4989231;28;20117;-81
2023/10/31 00:18:07;;;;;;;0.28;0.20;;;;;;;;;;4985613;28;20042;-81
2023/10/31 00:20:32;;;;;;;1.77;0.30;;;;;;;;;;4970427;28;20027;-81
2023/10/31 00:22:58;;;;;;;0.75;0.10;;;;;;;;;;4983115;28;20034;-81
2023/10/31 00:25:23;;;;;;;0.28;0.20;;;;;;;;;;4976850;28;20034;-81
2023/10/31 00:27:49;;;;;;;0.30;0.20;;;;;;;;;;4988010;28;20026;-81
2023/10/31 00:30:14;;;;;;;0.20;0.20;;;;;;;;;;4988401;28;20042;-81
2023/10/31 00:32:40;;;;;;;0.30;0.15;;;;;;;;;;4983560;28;20037;-81
2023/10/31 00:35:06;;;;;;;0.13;0.10;;;;;;;;;;4985669;28;20041;-81
2023/10/31 00:37:31;;;;;;;0.10;0.10;;;;;;;;;;4968593;28;20122;-81
2023/10/31 00:39:57;;;;;;;1.52;0.10;;;;;;;;;;4992843;28;20080;-81
2023/10/31 00:42:22;;;;;;;0.65;0.20;;;;;;;;;;4994062;28;20085;-81
2023/10/31 00:44:47;;;;;;;0.38;0.10;;;;;;;;;;4976376;28;20132;-81
2023/10/31 00:47:14;;;;;;;0.38;0.10;;;;;;;;;;4987070;28;20034;-81
2023/10/31 00:49:39;;;;;;;0.20;0.10;;;;;;;;;;4962813;28;20066;-81
2023/10/31 00:52:05;;;;;;;0.10;0.10;;;;;;;;;;4969106;28;20068;-81
2023/10/31 00:54:30;;;;;;;0.10;0.10;;;;;;;;;;4991664;28;20038;-81
2023/10/31 00:56:56;;;;;;;0.13;0.13;;;;;;;;;;4976347;28;20370;-81
2023/10/31 00:59:21;;;;;;;0.85;0.10;;;;;;;;;;4985944;28;20053;-81
2023/10/31 01:01:48;;;;;;;0.00;0.00;;;;;;;;;;4979294;28;20030;-81
2023/10/31 01:04:13;;;;;;;0.10;0.10;;;;;;;;;;4983153;28;20389;-81
2023/10/31 01:06:42;;;;;;;0.60;0.10;;;;;;;;;;4985864;28;20041;-80
2023/10/31 01:09:09;;;;;;;0.13;0.10;;;;;;;;;;4970412;28;20502;-81
2023/10/31 01:11:35;;;;;;;0.03;0.00;;;;;;;;;;4988534;28;20042;-81
2023/10/31 01:14:00;;;;;;;0.10;0.10;;;;;;;;;;4983430;28;20035;-81
2023/10/31 01:16:26;;;;;;;1.23;0.03;;;;;;;;;;4967398;28;20423;-81
2023/10/31 01:18:51;;;;;;;0.52;0.20;;;;;;;;;;4991951;28;20185;-80
2023/10/31 01:21:16;;;;;;;0.20;0.20;;;;;;;;;;4992474;28;20419;-81
2023/10/31 01:23:42;;;;;;;0.15;0.10;;;;;;;;;;4992394;28;20030;-80
2023/10/31 01:26:07;;;;;;;0.10;0.10;;;;;;;;;;4994052;28;20467;-81
2023/10/31 01:28:33;;;;;;;0.08;0.00;;;;;;;;;;4969827;28;20030;-80
2023/10/31 01:30:58;;;;;;;1.42;0.00;;;;;;;;;;4986837;28;20109;-81
2023/10/31 01:33:24;;;;;;;0.00;0.00;;;;;;;;;;4973987;28;20030;-81
2023/10/31 01:35:50;;;;;;;0.00;0.00;;;;;;;;;;4974823;28;20122;-81
2023/10/31 01:38:15;;;;;;;0.10;0.10;;;;;;;;;;4992546;28;20053;-81
2023/10/31 01:40:40;;;;;;;0.03;0.03;;;;;;;;;;4962393;28;20023;-81
2023/10/31 01:43:06;;;;;;;0.15;0.10;;;;;;;;;;4972502;28;20042;-81
2023/10/31 01:45:31;;;;;;;0.00;0.00;;;;;;;;;;4984117;28;20030;-81
2023/10/31 01:47:58;;;;;;;0.00;0.00;;;;;;;;;;4973255;28;20489;-81
2023/10/31 01:50:24;;;;;;;0.47;0.10;;;;;;;;;;4991801;28;20038;-81
2023/10/31 01:52:51;;;;;;;0.00;0.00;;;;;;;;;;4987245;28;20035;-81
2023/10/31 01:55:17;;;;;;;0.00;0.00;;;;;;;;;;4986466;28;20121;-81
2023/10/31 01:57:45;;;;;;;0.00;0.00;;;;;;;;;;4979144;28;20125;-81
2023/10/31 02:00:12;;;;;;;0.00;0.00;;;;;;;;;;4957232;28;20030;-81
2023/10/31 02:02:41;;;;;;;0.00;0.00;;;;;;;;;;4997685;28;20050;-81
2023/10/31 02:05:06;;;;;;;0.00;0.00;;;;;;;;;;4995849;28;20033;-81
2023/10/31 02:07:32;;;;;;;0.00;0.00;;;;;;;;;;4984482;28;20105;-81
2023/10/31 02:09:57;;;;;;;0.40;0.10;;;;;;;;;;4985774;28;20081;-81
2023/10/31 02:12:34;;;;;;;0.17;0.10;;;;;;;;;;4965623;28;20096;-81
2023/10/31 02:15:00;;;;;;;0.00;0.00;;;;;;;;;;4993785;28;20038;-80
2023/10/31 02:17:25;;;;;;;0.10;0.10;;;;;;;;;;4979326;28;20048;-81
2023/10/31 02:19:51;;;;;;;0.10;0.10;;;;;;;;;;4970821;28;20105;-81
2023/10/31 02:22:16;;;;;;;0.10;0.10;;;;;;;;;;4977236;28;20030;-81
2023/10/31 02:24:42;;;;;;;0.05;0.00;;;;;;;;;;4983158;28;20026;-81
2023/10/31 02:27:08;;;;;;;1.45;0.10;;;;;;;;;;4967867;28;20039;-81
2023/10/31 02:29:33;;;;;;;0.00;0.00;;;;;;;;;;4991559;28;20069;-81
2023/10/31 02:31:59;;;;;;;0.85;0.05;;;;;;;;;;4987009;28;20039;-81
2023/10/31 02:34:26;;;;;;;0.08;0.03;;;;;;;;;;4974855;28;20031;-81
2023/10/31 02:36:52;;;;;;;0.13;0.13;;;;;;;;;;4978380;28;20026;-81
2023/10/31 02:39:17;;;;;;;0.68;0.10;;;;;;;;;;4966099;28;20523;-81
2023/10/31 02:41:43;;;;;;;0.73;0.10;;;;;;;;;;4996543;28;20408;-81
2023/10/31 02:44:09;;;;;;;0.47;0.20;;;;;;;;;;4975417;28;20031;-81
2023/10/31 02:46:38;;;;;;;0.85;0.00;;;;;;;;;;4995423;28;20033;-81
2023/10/31 02:49:04;;;;;;;0.00;0.00;;;;;;;;;;4988173;28;20031;-81
2023/10/31 02:51:29;;;;;;;0.00;0.00;;;;;;;;;;4971780;28;20034;-81
2023/10/31 02:53:54;;;;;;;0.10;0.10;;;;;;;;;;4974185;28;20031;-81
2023/10/31 02:56:20;;;;;;;0.50;0.10;;;;;;;;;;4991031;28;20119;-81
2023/10/31 02:58:45;;;;;;;0.03;0.03;;;;;;;;;;4991598;28;20037;-81
2023/10/31 03:01:11;;;;;;;0.63;0.03;;;;;;;;;;4978348;28;20049;-81
2023/10/31 03:03:36;;;;;;;0.65;0.20;;;;;;;;;;4987950;28;20030;-81
2023/10/31 03:06:02;;;;;;;0.20;0.10;;;;;;;;;;4967955;28;20034;-81
2023/10/31 03:08:28;;;;;;;1.02;0.10;;;;;;;;;;4962400;28;20039;-81
2023/10/31 03:10:53;;;;;;;0.00;0.00;;;;;;;;;;4985530;28;20039;-81
2023/10/31 03:13:19;;;;;;;0.17;0.05;;;;;;;;;;4987622;28;20531;-81
2023/10/31 03:15:48;;;;;;;0.17;0.00;;;;;;;;;;4964971;28;20038;-81
2023/10/31 03:18:16;;;;;;;0.03;0.00;;;;;;;;;;4990403;28;20038;-81
2023/10/31 03:20:46;;;;;;;0.30;0.00;;;;;;;;;;4984219;28;20034;-81
2023/10/31 03:23:12;;;;;;;0.15;0.10;;;;;;;;;;4992360;28;20039;-81
2023/10/31 03:25:38;;;;;;;2.35;0.10;;;;;;;;;;4973546;28;20114;-81
2023/10/31 03:28:03;;;;;;;0.00;0.00;;;;;;;;;;4994942;28;20069;-81
2023/10/31 03:30:29;;;;;;;0.68;0.13;;;;;;;;;;4984854;28;20035;-81
2023/10/31 03:32:54;;;;;;;0.13;0.10;;;;;;;;;;4991954;28;20038;-80
2023/10/31 03:35:20;;;;;;;0.20;0.00;;;;;;;;;;4984877;28;20038;-81
2023/10/31 03:37:46;;;;;;;0.80;0.10;;;;;;;;;;4966563;28;20397;-81
2023/10/31 03:40:12;;;;;;;1.05;0.20;;;;;;;;;;4991410;28;20030;-81
2023/10/31 03:42:38;;;;;;;0.10;0.10;;;;;;;;;;4973021;28;20168;-81
2023/10/31 03:45:04;;;;;;;0.00;0.00;;;;;;;;;;4982025;28;20094;-81
2023/10/31 03:47:30;;;;;;;0.47;0.10;;;;;;;;;;4967241;28;20018;-81
2023/10/31 03:49:56;;;;;;;0.08;0.00;;;;;;;;;;4979330;28;20169;-81
2023/10/31 03:52:21;;;;;;;0.25;0.10;;;;;;;;;;4989372;28;20038;-81
2023/10/31 03:54:48;;;;;;;0.00;0.00;;;;;;;;;;4981220;28;20467;-81
2023/10/31 03:57:13;;;;;;;0.00;0.00;;;;;;;;;;4974719;28;20038;-81
2023/10/31 03:59:39;;;;;;;0.10;0.10;;;;;;;;;;4970976;28;20030;-81
2023/10/31 04:02:05;;;;;;;0.00;0.00;;;;;;;;;;4982363;28;20109;-81
2023/10/31 04:04:30;;;;;;;0.08;0.08;;;;;;;;;;4989717;28;20424;-81
2023/10/31 04:06:55;;;;;;;0.38;0.10;;;;;;;;;;4993820;28;20500;-81
2023/10/31 04:09:21;;;;;;;1.00;0.10;;;;;;;;;;4992845;28;20105;-81
2023/10/31 04:11:47;;;;;;;0.20;0.20;;;;;;;;;;4985560;28;20109;-81
2023/10/31 04:14:12;;;;;;;0.60;0.05;;;;;;;;;;4983071;28;20042;-81
2023/10/31 04:16:45;;;;;;;0.60;0.03;;;;;;;;;;4984087;28;20058;-81
2023/10/31 04:19:13;;;;;;;0.10;0.10;;;;;;;;;;4989481;28;20041;-81
2023/10/31 04:21:39;;;;;;;0.65;0.10;;;;;;;;;;4990806;28;20096;-81
2023/10/31 04:24:05;;;;;;;0.10;0.10;;;;;;;;;;4989743;28;20039;-81
2023/10/31 04:26:30;;;;;;;0.47;0.10;;;;;;;;;;4987899;28;20084;-81
2023/10/31 04:28:56;;;;;;;0.10;0.00;;;;;;;;;;4979873;28;20130;-81
2023/10/31 04:31:21;;;;;;;0.15;0.00;;;;;;;;;;4984862;28;20038;-80
2023/10/31 04:33:46;;;;;;;0.20;0.00;;;;;;;;;;4987428;28;20022;-81
2023/10/31 04:36:12;;;;;;;0.00;0.00;;;;;;;;;;4986586;28;20551;-80
2023/10/31 04:38:40;;;;;;;0.08;0.00;;;;;;;;;;4988096;28;21065;-81
2023/10/31 04:41:07;;;;;;;0.22;0.00;;;;;;;;;;4983722;28;20035;-81
2023/10/31 04:43:32;;;;;;;0.00;0.00;;;;;;;;;;4983147;28;20042;-81
2023/10/31 04:45:58;;;;;;;0.03;0.03;;;;;;;;;;4994729;28;20102;-80
2023/10/31 04:48:23;;;;;;;0.10;0.10;;;;;;;;;;4994274;28;20034;-81
2023/10/31 04:50:49;;;;;;;2.92;0.10;;;;;;;;;;4985623;28;20485;-81
2023/10/31 04:53:14;;;;;;;0.00;0.00;;;;;;;;;;4983958;28;20034;-81
2023/10/31 04:55:40;;;;;;;0.00;0.00;;;;;;;;;;4983633;28;20039;-81
2023/10/31 04:58:05;;;;;;;0.47;0.10;;;;;;;;;;4988740;28;20038;-81
2023/10/31 05:00:31;;;;;;;0.10;0.10;;;;;;;;;;4973225;28;20480;-81
2023/10/31 05:02:57;;;;;;;2.17;0.22;;;;;;;;;;4977048;28;20026;-81
2023/10/31 05:05:23;;;;;;;0.40;0.40;;;;;;;;;;4991754;28;20041;-81
2023/10/31 05:07:48;;;;;;;1.65;0.50;;;;;;;;;;4981906;28;20031;-81
2023/10/31 05:10:14;;;;;;;1.38;1.15;;;;;;;;;;4984094;28;20039;-81
2023/10/31 05:12:39;;;;;;;1.00;0.90;;;;;;;;;;4976797;28;20037;-81
2023/10/31 05:15:06;;;;;;;0.52;0.50;;;;;;;;;;4990917;28;20035;-81
2023/10/31 05:17:31;;;;;;;3.63;1.10;;;;;;;;;;4991183;28;20059;-81
2023/10/31 05:19:56;;;;;;;2.47;1.13;;;;;;;;;;4987357;28;20058;-81
2023/10/31 05:22:22;;;;;;;0.95;0.60;;;;;;;;;;4989824;28;20553;-82
2023/10/31 05:24:47;;;;;;;1.73;0.95;;;;;;;;;;4990477;28;20038;-81
2023/10/31 05:27:13;;;;;;;1.27;0.40;;;;;;;;;;4990591;28;20035;-81
2023/10/31 05:29:39;;;;;;;0.30;0.30;;;;;;;;;;4997713;28;20479;-81
2023/10/31 05:32:04;;;;;;;0.22;0.22;;;;;;;;;;4988596;28;20088;-81
2023/10/31 05:34:30;;;;;;;0.20;0.20;;;;;;;;;;4978394;28;20404;-81
2023/10/31 05:36:55;;;;;;;0.10;0.10;;;;;;;;;;4992979;28;20022;-81
2023/10/31 05:39:21;;;;;;;0.50;0.20;;;;;;;;;;4988568;28;20042;-81
2023/10/31 05:41:46;;;;;;;0.20;0.10;;;;;;;;;;4988256;28;20030;-81
2023/10/31 05:44:12;;;;;;;0.32;0.13;;;;;;;;;;4995785;28;20452;-81
2023/10/31 05:46:39;;;;;;;2.05;0.43;;;;;;;;;;4988607;28;20053;-81
2023/10/31 05:49:07;;;;;;;0.35;0.20;;;;;;;;;;4985067;28;20038;-81
2023/10/31 05:51:33;;;;;;;0.20;0.20;;;;;;;;;;4981368;28;20030;-81
2023/10/31 05:54:00;;;;;;;0.10;0.10;;;;;;;;;;4979025;28;20035;-81
2023/10/31 05:56:25;;;;;;;0.75;0.32;;;;;;;;;;4992065;28;20027;-81
2023/10/31 05:58:51;;;;;;;0.30;0.28;;;;;;;;;;4992703;28;20404;-83
2023/10/31 06:01:16;;;;;;;2.03;0.40;;;;;;;;;;4988412;28;20125;-81
2023/10/31 06:03:43;;;;;;;0.43;0.40;;;;;;;;;;4989582;28;20472;-82
2023/10/31 06:06:10;;;;;;;0.57;0.20;;;;;;;;;;4989337;28;20118;-82
2023/10/31 06:08:35;;;;;;;0.40;0.20;;;;;;;;;;4989185;28;20034;-81
2023/10/31 06:11:01;;;;;;;1.38;0.30;;;;;;;;;;4990099;28;20045;-81
2023/10/31 06:13:27;;;;;;;0.57;0.30;;;;;;;;;;4973048;28;20038;-81
2023/10/31 06:15:54;;;;;;;2.08;0.35;;;;;;;;;;4984332;28;20027;-80
2023/10/31 06:18:19;;;;;;;0.20;0.20;;;;;;;;;;4987977;28;20043;-81
2023/10/31 06:20:45;;;;;;;1.02;0.25;;;;;;;;;;4986630;28;20043;-81
2023/10/31 06:23:10;;;;;;;0.43;0.20;;;;;;;;;;4988812;28;20034;-81
2023/10/31 06:25:36;;;;;;;0.70;0.28;;;;;;;;;;4976445;28;20022;-81
2023/10/31 06:28:01;;;;;;;0.52;0.30;;;;;;;;;;4995413;28;20050;-81
2023/10/31 06:30:27;;;;;;;0.30;0.30;;;;;;;;;;4986123;28;20714;-81
2023/10/31 06:32:55;;;;;;;0.30;0.30;;;;;;;;;;4991505;28;20068;-80
2023/10/31 06:35:24;;;;;;;1.05;0.30;;;;;;;;;;4982111;28;20132;-80
2023/10/31 06:37:50;;;;;;;0.20;0.20;;;;;;;;;;4989160;28;20046;-81
2023/10/31 06:40:16;;;;;;;2.55;0.50;;;;;;;;;;4990251;28;20043;-81
2023/10/31 06:42:41;;;;;;;2.38;0.45;;;;;;;;;;4987310;28;20043;-80
2023/10/31 06:45:07;;;;;;;1.33;0.30;;;;;;;;;;4989884;28;20053;-81
2023/10/31 06:47:33;;;;;;;1.20;0.30;;;;;;;;;;4985886;28;20389;-81
2023/10/31 06:49:58;;;;;;;1.05;0.40;;;;;;;;;;4964735;28;20026;-81
2023/10/31 06:52:24;;;;;;;0.57;0.30;;;;;;;;;;4987041;28;20049;-81
2023/10/31 06:54:49;;;;;;;0.30;0.20;;;;;;;;;;4982000;28;20031;-81
2023/10/31 06:57:16;;;;;;;0.93;0.30;;;;;;;;;;4983018;28;20038;-81
2023/10/31 06:59:41;;;;;;;0.65;0.20;;;;;;;;;;4985352;28;20030;-82
2023/10/31 07:02:07;;;;;;;0.55;0.28;;;;;;;;;;4985858;28;20045;-81
2023/10/31 07:04:32;;;;;;;0.30;0.30;;;;;;;;;;4988121;28;20146;-85
2023/10/31 07:06:58;;;;;;;0.50;0.30;;;;;;;;;;4972500;28;20034;-82
2023/10/31 07:09:25;;;;;;;1.00;0.30;;;;;;;;;;4994067;28;20041;-80
2023/10/31 07:11:51;;;;;;;0.88;0.30;;;;;;;;;;4987200;28;20035;-81
2023/10/31 07:14:17;;;;;;;0.30;0.30;;;;;;;;;;4982860;28;20409;-79
2023/10/31 07:16:44;;;;;;;0.50;0.40;;;;;;;;;;4989622;28;20030;-80
2023/10/31 07:19:12;;;;;;;2.05;0.65;;;;;;;;;;4990347;28;20081;-79
2023/10/31 07:21:38;;;;;;;0.32;0.32;;;;;;;;;;4987908;28;20038;-80
2023/10/31 07:24:03;;;;;;;0.63;0.20;;;;;;;;;;4988035;28;20036;-81
2023/10/31 07:26:29;;;;;;;0.63;0.30;;;;;;;;;;4986742;28;20464;-86
2023/10/31 07:28:54;;;;;;;0.30;0.30;;;;;;;;;;4983178;28;20038;-82
2023/10/31 07:31:20;;;;;;;0.55;0.30;;;;;;;;;;4987472;28;20475;-80
2023/10/31 07:33:45;;;;;;;1.55;0.65;;;;;;;;;;4982573;28;20062;-82
2023/10/31 07:36:11;;;;;;;0.17;0.17;;;;;;;;;;4982755;28;20033;-81
2023/10/31 07:38:37;;;;;;;1.23;0.40;;;;;;;;;;4985140;28;20119;-82
2023/10/31 07:41:03;;;;;;;1.20;0.30;;;;;;;;;;4984213;28;20174;-83
2023/10/31 07:43:28;;;;;;;0.52;0.30;;;;;;;;;;4975843;28;20496;-83
2023/10/31 07:45:53;;;;;;;0.90;0.30;;;;;;;;;;4991174;28;20022;-83
2023/10/31 07:48:19;;;;;;;2.40;0.40;;;;;;;;;;4992062;28;20034;-87
2023/10/31 07:50:44;;;;;;;1.05;0.30;;;;;;;;;;4989867;28;20134;-82
2023/10/31 07:53:10;;;;;;;0.22;0.20;;;;;;;;;;4988731;28;20096;-82
2023/10/31 07:55:35;;;;;;;2.97;0.40;;;;;;;;;;4973823;28;20038;-85
2023/10/31 07:58:01;;;;;;;0.82;0.50;;;;;;;;;;4982780;28;20042;-85
2023/10/31 08:00:27;;;;;;;13.20;3.67;;;;;;;;;;4989248;28;20069;-85
2023/10/31 08:02:52;;;;;;;7.85;0.88;;;;;;;;;;4987914;28;20034;-84
2023/10/31 08:05:17;;;;;;;6.00;2.10;;;;;;;;;;4990846;28;20186;-85
2023/10/31 08:07:43;;;;;;;1.15;0.70;;;;;;;;;;4974108;28;20094;-84
2023/10/31 08:10:09;;;;;;;6.82;1.40;;;;;;;;;;4984596;28;20035;-85
2023/10/31 08:12:35;;;;;;;9.45;1.10;;;;;;;;;;4968998;28;20516;-84
2023/10/31 08:15:01;;;;;;;24.20;1.67;;;;;;;;;;4973129;28;20065;-84
2023/10/31 08:17:27;;;;;;;1.00;0.47;;;;;;;;;;4987629;28;20048;-85
2023/10/31 08:19:52;;;;;;;9.20;1.40;;;;;;;;;;4968929;28;20034;-85
2023/10/31 08:22:18;;;;;;;10.05;2.30;;;;;;;;;;4987943;28;20110;-86
2023/10/31 08:24:43;;;;;;;3.88;0.77;;;;;;;;;;4991015;28;20045;-84
2023/10/31 08:27:10;;;;;;;2.78;0.60;;;;;;;;;;4984677;28;20117;-84
2023/10/31 08:29:35;;;;;;;0.93;0.30;;;;;;;;;;4992042;28;20513;-83
2023/10/31 08:32:01;;;;;;;2.30;0.82;;;;;;;;;;4991199;28;20077;-83
2023/10/31 08:34:26;;;;;;;2.45;0.50;;;;;;;;;;4991174;28;20035;-83
2023/10/31 08:36:52;;;;;;;4.35;0.40;;;;;;;;;;4991845;28;20057;-83
2023/10/31 08:39:18;;;;;;;1.10;0.40;;;;;;;;;;4987961;28;20050;-82
2023/10/31 08:42:10;;;;;;;2.05;0.43;;;;;;;;;;4964699;28;20038;-83
2023/10/31 08:44:37;;;;;;;6.03;1.15;;;;;;;;;;4992780;28;20045;-84
2023/10/31 08:47:03;;;;;;;10.68;0.95;;;;;;;;;;4984800;28;20504;-83
2023/10/31 08:49:29;;;;;;;2.13;0.63;;;;;;;;;;4987624;28;20038;-83
2023/10/31 08:51:55;;;;;;;0.40;0.30;;;;;;;;;;4982107;28;20053;-82
2023/10/31 08:54:20;;;;;;;1.52;0.60;;;;;;;;;;4982326;28;20094;-82
2023/10/31 08:56:46;;;;;;;1.65;0.52;;;;;;;;;;4983887;28;20047;-82
2023/10/31 08:59:11;;;;;;;1.15;0.57;;;;;;;;;;4984516;28;20045;-82
2023/10/31 09:01:37;;;;;;;2.33;0.88;;;;;;;;;;4983918;28;20160;-83
2023/10/31 09:04:02;;;;;;;1.52;0.70;;;;;;;;;;4982559;28;20608;-83
2023/10/31 09:06:28;;;;;;;2.60;0.65;;;;;;;;;;4987435;28;20037;-82
2023/10/31 09:08:53;;;;;;;0.98;0.50;;;;;;;;;;4988417;28;20121;-83
2023/10/31 09:11:19;;;;;;;2.08;0.63;;;;;;;;;;4992198;28;20034;-83
2023/10/31 09:13:44;;;;;;;1.45;0.47;;;;;;;;;;4972815;28;20034;-83
2023/10/31 09:16:10;;;;;;;2.10;0.63;;;;;;;;;;4981470;28;20047;-83
2023/10/31 09:18:36;;;;;;;5.05;0.65;;;;;;;;;;4983359;28;20022;-83
2023/10/31 09:21:01;;;;;;;3.10;0.73;;;;;;;;;;4979953;28;20489;-83
2023/10/31 09:23:27;;;;;;;2.97;0.70;;;;;;;;;;4988584;28;20046;-83
2023/10/31 09:25:52;;;;;;;0.75;0.50;;;;;;;;;;4989338;28;20125;-83
2023/10/31 09:28:18;;;;;;;5.25;1.40;;;;;;;;;;4985091;28;20042;-83
2023/10/31 09:30:43;;;;;;;1.40;0.60;;;;;;;;;;4988518;28;20058;-83
2023/10/31 09:33:09;;;;;;;3.88;1.45;;;;;;;;;;4982033;28;20066;-83
2023/10/31 09:35:34;;;;;;;3.13;0.90;;;;;;;;;;4982920;28;20042;-83
2023/10/31 09:38:00;;;;;;;1.83;0.77;;;;;;;;;;4982918;28;20051;-82
2023/10/31 09:40:26;;;;;;;1.75;0.98;;;;;;;;;;4985035;28;20045;-81
2023/10/31 09:42:51;;;;;;;3.13;1.27;;;;;;;;;;4983760;28;20416;-83
2023/10/31 09:45:18;;;;;;;2.10;1.30;;;;;;;;;;4988200;28;20131;-82
2023/10/31 09:47:43;;;;;;;2.40;0.90;;;;;;;;;;4994139;28;20080;-84
2023/10/31 09:50:09;;;;;;;2.70;1.30;;;;;;;;;;4992324;28;20062;-84
2023/10/31 09:52:39;;;;;;;11.07;1.20;;;;;;;;;;4992982;28;20034;-86
2023/10/31 09:55:05;;;;;;;2.65;0.98;;;;;;;;;;4991003;28;20034;-86
2023/10/31 09:57:31;;;;;;;2.17;1.20;;;;;;;;;;4991215;28;20492;-83
2023/10/31 09:59:57;;;;;;;2.97;1.00;;;;;;;;;;4985028;28;20377;-85
2023/10/31 10:02:22;;;;;;;5.72;1.10;;;;;;;;;;4985070;28;20045;-85
2023/10/31 10:04:48;;;;;;;3.28;1.08;;;;;;;;;;4987118;28;20684;-84
2023/10/31 10:07:19;;;;;;;3.22;1.70;;;;;;;;;;4991175;28;20031;-85
2023/10/31 10:09:46;;;;;;;2.00;1.10;;;;;;;;;;4989936;28;20053;-85
2023/10/31 10:12:13;;;;;;;3.08;1.30;;;;;;;;;;4987711;28;20038;-84
2023/10/31 10:14:39;;;;;;;2.50;1.17;;;;;;;;;;4983109;28;20045;-86
2023/10/31 10:17:24;;;;;;;2.70;0.90;;;;;;;;;;4981380;28;20049;-84
2023/10/31 10:20:10;;;;;;;1.83;0.70;;;;;;;;;;4991489;28;20038;-86
2023/10/31 10:22:42;;;;;;;2.03;1.10;;;;;;;;;;4988161;28;20530;-86
2023/10/31 10:25:17;;;;;;;3.97;1.53;;;;;;;;;;4988832;28;20046;-85
2023/10/31 10:27:43;;;;;;;2.08;1.10;;;;;;;;;;4992807;28;20546;-85
2023/10/31 10:30:10;;;;;;;2.25;0.90;;;;;;;;;;4988496;28;20454;-86
2023/10/31 10:32:35;;;;;;;1.50;0.93;;;;;;;;;;4993411;28;20054;-86
2023/10/31 10:35:01;;;;;;;2.63;1.00;;;;;;;;;;4990833;28;20062;-86
2023/10/31 10:37:27;;;;;;;1.90;0.90;;;;;;;;;;4991404;28;20473;-85
2023/10/31 10:39:56;;;;;;;2.13;0.90;;;;;;;;;;4993022;28;20039;-86
2023/10/31 10:42:47;;;;;;;1.15;0.68;;;;;;;;;;4974622;28;20038;-86
2023/10/31 10:45:15;;;;;;;0.98;0.60;;;;;;;;;;4982768;28;20039;-85
2023/10/31 10:47:46;;;;;;;1.50;0.80;;;;;;;;;;4991675;28;20400;-85
2023/10/31 10:50:13;;;;;;;0.77;0.70;;;;;;;;;;4992233;28;20540;-85
2023/10/31 10:52:44;;;;;;;1.55;0.50;;;;;;;;;;4991054;28;20500;-84
2023/10/31 10:55:22;;;;;;;1.20;0.60;;;;;;;;;;4988017;28;20050;-85
2023/10/31 10:58:05;;;;;;;0.85;0.40;;;;;;;;;;4986430;28;20027;-85
2023/10/31 11:00:31;;;;;;;1.42;0.80;;;;;;;;;;4989013;28;20573;-86
2023/10/31 11:02:56;;;;;;;0.95;0.60;;;;;;;;;;4985729;28;20084;-85
2023/10/31 11:05:23;;;;;;;1.23;0.68;;;;;;;;;;4991954;28;20034;-85
2023/10/31 11:07:51;;;;;;;1.15;0.57;;;;;;;;;;4992602;28;20057;-84
2023/10/31 11:10:17;;;;;;;0.85;0.40;;;;;;;;;;4996064;28;20045;-87
2023/10/31 11:12:43;;;;;;;0.73;0.50;;;;;;;;;;4996150;28;20057;-86
2023/10/31 11:15:14;;;;;;;1.10;0.63;;;;;;;;;;4993891;28;20097;-86
2023/10/31 11:17:42;;;;;;;0.80;0.50;;;;;;;;;;4996874;28;20615;-83
2023/10/31 11:20:10;;;;;;;1.85;0.80;;;;;;;;;;4992499;28;20030;-85
2023/10/31 11:22:44;;;;;;;0.63;0.40;;;;;;;;;;4991034;28;20042;-85
2023/10/31 11:25:23;;;;;;;0.70;0.68;;;;;;;;;;4987215;28;20065;-84
2023/10/31 11:27:52;;;;;;;0.63;0.35;;;;;;;;;;4993364;28;20034;-83
2023/10/31 11:30:34;;;;;;;0.68;0.30;;;;;;;;;;4991946;28;20088;-85
2023/10/31 11:33:00;;;;;;;2.00;1.27;;;;;;;;;;4986949;28;20525;-85
2023/10/31 11:35:29;;;;;;;0.40;0.40;;;;;;;;;;4986694;28;20046;-85
2023/10/31 11:38:06;;;;;;;0.35;0.35;;;;;;;;;;4984364;28;20069;-85
2023/10/31 11:40:32;;;;;;;0.55;0.50;;;;;;;;;;4967415;28;20491;-85
2023/10/31 11:42:58;;;;;;;1.90;1.17;;;;;;;;;;4988943;28;20030;-86
2023/10/31 11:45:47;;;;;;;2.17;1.20;;;;;;;;;;4989184;28;20030;-85
2023/10/31 11:48:12;;;;;;;1.05;0.95;;;;;;;;;;4983697;28;20031;-85
2023/10/31 11:50:38;;;;;;;0.77;0.70;;;;;;;;;;4988431;28;20041;-85
2023/10/31 11:53:12;;;;;;;0.60;0.50;;;;;;;;;;4994946;28;20026;-85
2023/10/31 11:55:46;;;;;;;1.10;0.80;;;;;;;;;;4987267;28;20034;-85
2023/10/31 11:58:23;;;;;;;1.23;0.70;;;;;;;;;;4991887;28;20034;-85
2023/10/31 12:00:50;;;;;;;0.57;0.57;;;;;;;;;;4992789;28;20456;-85
2023/10/31 12:03:20;;;;;;;0.50;0.28;;;;;;;;;;4987580;28;20117;-85
2023/10/31 12:05:58;;;;;;;0.50;0.50;;;;;;;;;;4987475;28;20057;-85
2023/10/31 12:08:35;;;;;;;0.88;0.60;;;;;;;;;;4984838;28;20030;-86
2023/10/31 12:11:15;;;;;;;0.73;0.50;;;;;;;;;;4991242;28;20038;-85
2023/10/31 12:13:50;;;;;;;0.90;0.50;;;;;;;;;;4990091;28;20030;-85
2023/10/31 12:16:16;;;;;;;0.80;0.80;;;;;;;;;;4987610;28;20381;-86
2023/10/31 12:18:42;;;;;;;0.95;0.70;;;;;;;;;;4973987;28;20037;-86
2023/10/31 12:21:08;;;;;;;3.35;0.80;;;;;;;;;;4986693;28;20381;-84
2023/10/31 12:23:34;;;;;;;0.55;0.55;;;;;;;;;;4985396;28;20168;-86
2023/10/31 12:25:59;;;;;;;0.95;0.70;;;;;;;;;;4981672;28;20697;-86
2023/10/31 12:28:26;;;;;;;0.80;0.80;;;;;;;;;;4978119;28;20061;-85
2023/10/31 12:30:57;;;;;;;0.77;0.50;;;;;;;;;;4984928;28;20049;-85
2023/10/31 12:33:26;;;;;;;1.30;0.80;;;;;;;;;;4986530;28;20049;-85
2023/10/31 12:35:59;;;;;;;0.95;0.70;;;;;;;;;;4991717;28;20030;-86
2023/10/31 12:38:25;;;;;;;1.38;0.60;;;;;;;;;;4989440;28;20038;-85
2023/10/31 12:40:52;;;;;;;1.55;0.70;;;;;;;;;;4993356;28;20038;-86
2023/10/31 12:43:17;;;;;;;0.90;0.65;;;;;;;;;;4991902;28;20484;-86
2023/10/31 12:45:43;;;;;;;0.40;0.40;;;;;;;;;;4993313;28;20034;-87
2023/10/31 12:48:11;;;;;;;2.03;0.50;;;;;;;;;;4987948;28;20043;-85
2023/10/31 12:50:42;;;;;;;0.60;0.50;;;;;;;;;;4999937;28;20062;-85
2023/10/31 12:53:08;;;;;;;0.68;0.55;;;;;;;;;;4988448;28;20507;-88
2023/10/31 12:55:42;;;;;;;0.68;0.47;;;;;;;;;;4997832;28;20027;-88
2023/10/31 12:58:10;;;;;;;;;;;;;;;;;;4986613;28;20373;-88
2023/10/31 13:00:36;;;;;;;0.60;0.50;;;;;;;;;;4992518;28;19960;-89
2023/10/31 13:03:07;;;;;;;0.68;0.55;;;;;;;;;;4989498;28;20038;-89
2023/10/31 13:05:34;;;;;;;0.52;0.40;;;;;;;;;;4993138;28;20064;-90
2023/10/31 13:08:00;;;;;;;1.10;0.57;;;;;;;;;;4990509;28;20037;-90
2023/10/31 13:10:29;;;;;;;0.88;0.60;;;;;;;;;;4993154;28;20550;-90
2023/10/31 13:12:55;;;;;;;0.90;0.52;;;;;;;;;;4989897;28;20038;-89
2023/10/31 13:15:23;;;;;;;1.23;0.70;;;;;;;;;;4987613;28;20070;-89
2023/10/31 13:17:50;;;;;;;0.90;0.70;;;;;;;;;;4958889;28;20058;-89
2023/10/31 13:20:17;;;;;;;1.02;0.70;;;;;;;;;;4982361;28;20057;-90
2023/10/31 13:22:43;;;;;;;0.40;0.30;;;;;;;;;;4969197;28;20035;-90
2023/10/31 13:25:11;;;;;;;0.47;0.30;;;;;;;;;;4961485;28;20054;-90
2023/10/31 13:27:37;;;;;;;1.00;0.70;;;;;;;;;;4989980;28;20041;-89
2023/10/31 13:30:04;;;;;;;1.05;0.50;;;;;;;;;;4989723;28;20048;-90
2023/10/31 13:32:30;;;;;;;1.42;0.95;;;;;;;;;;4981582;28;20044;-90
2023/10/31 13:34:55;;;;;;;2.22;1.63;;;;;;;;;;4988928;28;20034;-91
2023/10/31 13:37:21;;;;;;;1.10;0.80;;;;;;;;;;4992988;28;20039;-90
2023/10/31 13:39:46;;;;;;;1.40;0.43;;;;;;;;;;4983875;28;20029;-90
2023/10/31 13:42:14;;;;;;;0.70;0.50;;;;;;;;;;4988207;28;20361;-90
2023/10/31 13:44:40;;;;;;;0.85;0.73;;;;;;;;;;4992587;28;20038;-87
2023/10/31 13:47:06;;;;;;;1.50;0.98;;;;;;;;;;4995348;28;20132;-87
2023/10/31 13:49:31;;;;;;;1.63;1.08;;;;;;;;;;4985149;28;20476;-86
2023/10/31 13:51:57;;;;;;;1.05;0.70;;;;;;;;;;4990998;28;20057;-86
2023/10/31 13:54:22;;;;;;;2.90;0.93;;;;;;;;;;4993199;28;20404;-87
2023/10/31 13:56:48;;;;;;;2.20;1.20;;;;;;;;;;4993116;28;20117;-88
2023/10/31 13:59:14;;;;;;;2.28;1.15;;;;;;;;;;4996574;28;20073;-87
2023/10/31 14:01:41;;;;;;;1.80;1.13;;;;;;;;;;4994383;28;20039;-88
2023/10/31 14:04:07;;;;;;;0.90;0.80;;;;;;;;;;4993052;28;20043;-87
2023/10/31 14:06:33;;;;;;;4.28;2.05;;;;;;;;;;4996578;28;20412;-87
2023/10/31 14:09:00;;;;;;;1.85;1.30;;;;;;;;;;4982509;28;20037;-88
2023/10/31 14:11:25;;;;;;;1.73;1.10;;;;;;;;;;4994127;28;20043;-87
2023/10/31 14:13:52;;;;;;;2.17;0.90;;;;;;;;;;4989249;28;20030;-87
2023/10/31 14:16:17;;;;;;;1.75;1.02;;;;;;;;;;4991014;28;20038;-87
2023/10/31 14:18:43;;;;;;;1.85;1.00;;;;;;;;;;4994266;28;20032;-87
2023/10/31 14:21:09;;;;;;;1.85;1.00;;;;;;;;;;4993772;28;20119;-85
2023/10/31 14:23:34;;;;;;;3.08;1.10;;;;;;;;;;4990649;28;20403;-87
2023/10/31 14:26:00;;;;;;;1.77;1.00;;;;;;;;;;4984540;28;20109;-86
2023/10/31 14:28:25;;;;;;;1.90;1.13;;;;;;;;;;4989951;28;20090;-85
2023/10/31 14:30:52;;;;;;;2.28;1.10;;;;;;;;;;4987009;28;20022;-87
2023/10/31 14:33:18;;;;;;;2.30;1.10;;;;;;;;;;4987672;28;20455;-87
2023/10/31 14:35:43;;;;;;;1.77;0.98;;;;;;;;;;4979580;28;20030;-87
2023/10/31 14:38:09;;;;;;;1.40;0.82;;;;;;;;;;4984925;28;20065;-87
2023/10/31 14:40:34;;;;;;;0.88;0.68;;;;;;;;;;4995721;28;20043;-83